createdAt,value
2018-02-24T00:00:42.990Z,6.80
2018-02-24T00:03:11.066Z,7.70
2018-02-24T00:05:39.182Z,8.37
2018-02-24T00:08:07.371Z,7.93
2018-02-24T00:10:35.454Z,7.70
2018-02-24T00:13:03.517Z,7.83
2018-02-24T00:15:31.731Z,8.10
2018-02-24T00:17:59.804Z,7.40
2018-02-24T00:20:27.861Z,7.50
2018-02-24T00:22:56.070Z,7.23
2018-02-24T00:25:24.159Z,8.33
2018-02-24T00:27:52.978Z,7.60
2018-02-24T00:30:21.323Z,7.00
2018-02-24T00:32:50.135Z,8.30
2018-02-24T00:35:18.252Z,8.03
2018-02-24T00:37:46.436Z,7.70
2018-02-24T00:40:14.516Z,7.40
2018-02-24T00:42:42.610Z,7.17
2018-02-24T00:45:11.618Z,8.83
2018-02-24T00:47:39.720Z,7.80
2018-02-24T00:50:07.804Z,8.03
2018-02-24T00:52:36.019Z,7.73
2018-02-24T00:55:04.840Z,8.90
2018-02-24T00:57:33.063Z,8.27
2018-02-24T01:00:01.263Z,8.70
2018-02-24T01:02:30.322Z,8.70
2018-02-24T01:04:58.395Z,7.93
2018-02-24T01:07:26.619Z,8.90
2018-02-24T01:09:55.447Z,7.83
2018-02-24T01:12:23.503Z,7.93
2018-02-24T01:14:51.717Z,11.97
2018-02-24T01:17:19.791Z,7.57
2018-02-24T01:19:47.875Z,8.33
2018-02-24T01:22:16.243Z,8.97
2018-02-24T01:24:44.328Z,9.30
2018-02-24T01:27:12.455Z,8.00
2018-02-24T01:29:40.799Z,9.50
2018-02-24T01:32:09.780Z,8.70
2018-02-24T01:34:37.844Z,9.67
2018-02-24T01:37:06.064Z,11.13
2018-02-24T01:39:34.139Z,10.07
2018-02-24T01:42:02.212Z,9.23
2018-02-24T01:44:30.411Z,9.90
2018-02-24T01:46:58.491Z,9.60
2018-02-24T01:49:26.558Z,8.17
2018-02-24T01:51:54.759Z,9.97
2018-02-24T01:54:22.832Z,8.80
2018-02-24T01:56:50.899Z,9.30
2018-02-24T01:59:19.900Z,8.50
2018-02-24T02:01:47.996Z,8.50
2018-02-24T02:04:16.822Z,7.90
2018-02-24T02:06:45.032Z,8.73
2018-02-24T02:09:13.141Z,8.77
2018-02-24T02:11:41.948Z,8.93
2018-02-24T02:14:10.879Z,8.50
2018-02-24T02:16:38.955Z,8.60
2018-02-24T02:19:07.015Z,8.67
2018-02-24T02:21:35.220Z,9.70
2018-02-24T02:24:03.289Z,8.50
2018-02-24T02:26:31.364Z,9.87
2018-02-24T02:28:59.568Z,9.00
2018-02-24T02:31:28.385Z,9.23
2018-02-24T02:33:56.601Z,9.10
2018-02-24T02:36:24.864Z,9.07
2018-02-24T02:38:52.944Z,8.60
2018-02-24T02:41:21.029Z,8.90
2018-02-24T02:43:49.236Z,8.83
2018-02-24T02:46:18.039Z,9.47
2018-02-24T02:48:46.861Z,10.30
2018-02-24T02:51:15.053Z,9.30
2018-02-24T02:53:43.123Z,9.10
2018-02-24T02:56:11.188Z,9.83
2018-02-24T02:58:39.564Z,9.43
2018-02-24T03:01:07.649Z,9.83
2018-02-24T03:03:35.749Z,9.20
2018-02-24T03:06:04.985Z,8.77
2018-02-24T03:08:33.088Z,10.50
2018-02-24T03:11:01.163Z,10.07
2018-02-24T03:13:29.376Z,9.03
2018-02-24T03:15:57.431Z,10.57
2018-02-24T03:18:25.511Z,8.43
2018-02-24T03:20:54.037Z,9.60
2018-02-24T03:23:22.115Z,9.80
2018-02-24T03:25:50.275Z,9.63
2018-02-24T03:28:19.215Z,8.67
2018-02-24T03:30:47.284Z,10.20
2018-02-24T03:33:15.359Z,8.33
2018-02-24T03:35:43.692Z,9.73
2018-02-24T03:38:12.527Z,11.43
2018-02-24T03:40:40.604Z,10.47
2018-02-24T03:43:08.931Z,10.13
2018-02-24T03:45:50.471Z,10.00
2018-02-24T03:48:18.667Z,11.03
2018-02-24T03:50:46.908Z,11.00
2018-02-24T03:53:15.141Z,11.10
2018-02-24T03:55:44.245Z,12.73
2018-02-24T03:58:13.076Z,11.23
2018-02-24T04:00:41.175Z,10.63
2018-02-24T04:03:09.392Z,11.83
2018-02-24T04:05:38.369Z,12.47
2018-02-24T04:08:07.215Z,12.47
2018-02-24T04:10:35.403Z,15.10
2018-02-24T04:13:03.502Z,13.03
2018-02-24T04:15:32.361Z,13.73
2018-02-24T04:18:00.563Z,13.73
2018-02-24T04:20:28.687Z,13.80
2018-02-24T04:22:56.768Z,13.30
2018-02-24T04:25:24.971Z,14.00
2018-02-24T04:27:53.054Z,12.90
2018-02-24T04:30:21.214Z,13.93
2018-02-24T04:32:49.443Z,14.70
2018-02-24T04:35:17.526Z,13.50
2018-02-24T04:37:45.730Z,14.30
2018-02-24T04:40:13.920Z,12.63
2018-02-24T04:42:41.987Z,13.27
2018-02-24T04:45:10.059Z,12.73
2018-02-24T04:47:38.283Z,13.10
2018-02-24T04:50:07.109Z,14.97
2018-02-24T04:52:35.226Z,14.50
2018-02-24T04:55:04.194Z,13.70
2018-02-24T04:57:32.279Z,14.30
2018-02-24T05:00:00.361Z,13.83
2018-02-24T05:02:28.567Z,13.60
2018-02-24T05:04:57.373Z,13.43
2018-02-24T05:07:25.439Z,13.33
2018-02-24T05:09:53.657Z,13.90
2018-02-24T05:12:21.728Z,12.73
2018-02-24T05:14:49.828Z,12.83
2018-02-24T05:17:18.024Z,11.53
2018-02-24T05:19:46.843Z,13.07
2018-02-24T05:22:14.928Z,12.93
2018-02-24T05:24:43.184Z,12.53
2018-02-24T05:27:11.272Z,11.93
2018-02-24T05:29:39.347Z,13.23
2018-02-24T05:32:07.576Z,11.70
2018-02-24T05:34:36.379Z,13.67
2018-02-24T05:37:04.448Z,12.73
2018-02-24T05:39:33.540Z,13.00
2018-02-24T05:42:02.351Z,13.13
2018-02-24T05:44:30.427Z,13.57
2018-02-24T05:46:58.680Z,14.80
2018-02-24T05:49:27.500Z,12.17
2018-02-24T05:51:55.587Z,19.50
2018-02-24T05:54:23.780Z,14.07
2018-02-24T05:56:51.928Z,13.30
2018-02-24T05:59:20.060Z,14.00
2018-02-24T06:01:49.167Z,15.33
2018-02-24T06:04:18.106Z,14.20
2018-02-24T06:06:46.219Z,16.27
2018-02-24T06:09:15.143Z,14.63
2018-02-24T06:11:43.200Z,14.53
2018-02-24T06:14:12.052Z,14.57
2018-02-24T06:16:40.282Z,15.07
2018-02-24T06:19:08.415Z,15.03
2018-02-24T06:21:36.495Z,13.07
2018-02-24T06:24:04.825Z,15.30
2018-02-24T06:39:38.718Z,15.63
2018-02-24T06:42:06.791Z,19.00
2018-02-24T06:44:34.855Z,18.80
2018-02-24T06:47:03.064Z,19.50
2018-02-24T06:49:31.144Z,21.17
2018-02-24T06:51:59.211Z,19.53
2018-02-24T06:54:27.399Z,21.13
2018-02-24T06:56:55.475Z,19.17
2018-02-24T06:59:23.567Z,18.87
2018-02-24T07:01:52.018Z,18.30
2018-02-24T07:04:20.116Z,19.00
2018-02-24T07:06:48.203Z,17.70
2018-02-24T07:09:17.143Z,17.60
2018-02-24T07:11:45.195Z,20.00
2018-02-24T07:14:13.267Z,17.30
2018-02-24T07:16:41.456Z,18.23
2018-02-24T07:19:09.549Z,19.07
2018-02-24T07:21:37.624Z,14.50
2018-02-24T07:24:05.831Z,15.23
2018-02-24T07:26:33.923Z,17.47
2018-02-24T07:29:02.731Z,15.80
2018-02-24T07:31:30.943Z,15.73
2018-02-24T07:33:59.020Z,16.23
2018-02-24T07:36:27.096Z,15.93
2018-02-24T07:38:55.283Z,15.00
2018-02-24T07:41:23.504Z,14.40
2018-02-24T07:43:51.610Z,16.30
2018-02-24T07:46:19.927Z,16.27
2018-02-24T07:48:48.748Z,17.17
2018-02-24T07:51:16.819Z,16.13
2018-02-24T07:53:45.040Z,15.50
2018-02-24T07:56:13.103Z,18.13
2018-02-24T07:58:41.196Z,16.87
2018-02-24T08:01:09.400Z,17.43
2018-02-24T08:03:39.252Z,18.30
2018-02-24T08:06:07.346Z,18.23
2018-02-24T08:08:35.599Z,15.10
2018-02-24T08:11:03.845Z,18.20
2018-02-24T08:13:32.658Z,16.20
2018-02-24T08:16:00.895Z,17.13
2018-02-24T08:18:29.010Z,17.50
2018-02-24T08:20:57.083Z,16.70
2018-02-24T08:23:25.299Z,15.47
2018-02-24T08:25:53.367Z,15.90
2018-02-24T08:28:21.560Z,15.47
2018-02-24T08:30:49.763Z,13.67
2018-02-24T08:33:17.841Z,13.80
2018-02-24T08:35:45.907Z,15.57
2018-02-24T08:38:14.851Z,14.07
2018-02-24T08:40:42.923Z,16.23
2018-02-24T08:43:11.120Z,16.73
2018-02-24T08:45:40.792Z,14.60
2018-02-24T08:48:08.888Z,14.63
2018-02-24T08:50:36.964Z,13.03
2018-02-24T08:53:05.382Z,15.90
2018-02-24T08:55:34.239Z,14.77
2018-02-24T08:58:02.319Z,14.93
2018-02-24T09:00:30.544Z,15.67
2018-02-24T09:02:58.611Z,16.03
2018-02-24T09:05:26.721Z,18.33
2018-02-24T09:07:54.991Z,14.03
2018-02-24T09:10:23.070Z,14.83
2018-02-24T09:12:51.164Z,15.53
2018-02-24T09:15:19.428Z,18.60
2018-02-24T09:17:47.507Z,18.83
2018-02-24T09:20:15.577Z,18.83
2018-02-24T09:22:43.788Z,14.27
2018-02-24T09:25:13.619Z,13.30
2018-02-24T09:27:41.703Z,14.60
2018-02-24T09:30:09.907Z,13.77
2018-02-24T09:32:37.976Z,14.60
2018-02-24T09:35:06.350Z,14.50
2018-02-24T09:37:34.556Z,16.23
2018-02-24T09:40:02.635Z,15.70
2018-02-24T09:42:31.460Z,14.27
2018-02-24T09:45:00.049Z,13.70
2018-02-24T09:47:28.160Z,13.23
2018-02-24T09:49:56.256Z,11.70
2018-02-24T09:52:24.965Z,15.80
2018-02-24T09:54:53.279Z,14.83
2018-02-24T09:57:21.367Z,14.07
2018-02-24T09:59:49.735Z,13.87
2018-02-24T10:02:17.800Z,15.60
2018-02-24T10:04:45.933Z,16.33
2018-02-24T10:07:14.881Z,16.10
2018-02-24T10:09:42.966Z,14.27
2018-02-24T10:12:11.100Z,15.73
2018-02-24T10:14:39.309Z,14.17
2018-02-24T10:17:07.451Z,14.43
2018-02-24T10:19:35.727Z,14.40
2018-02-24T10:22:03.965Z,14.23
2018-02-24T10:24:32.107Z,13.73
2018-02-24T10:27:00.447Z,13.57
2018-02-24T10:29:29.558Z,15.00
2018-02-24T10:31:57.781Z,15.57
2018-02-24T10:34:25.863Z,17.03
2018-02-24T10:36:54.094Z,15.23
2018-02-24T10:39:22.184Z,15.30
2018-02-24T10:41:50.260Z,14.80
2018-02-24T10:44:21.659Z,15.20
2018-02-24T10:46:50.004Z,16.47
2018-02-24T10:49:18.076Z,17.20
2018-02-24T10:51:46.279Z,16.37
2018-02-24T10:54:15.109Z,16.47
2018-02-24T10:56:43.182Z,16.60
2018-02-24T10:59:11.378Z,16.10
2018-02-24T11:01:39.451Z,17.43
2018-02-24T11:04:07.527Z,15.17
2018-02-24T11:06:35.748Z,16.67
2018-02-24T11:09:04.764Z,17.20
2018-02-24T11:11:32.842Z,14.77
2018-02-24T11:14:01.044Z,16.20
2018-02-24T11:16:29.129Z,18.30
2018-02-24T11:18:57.200Z,16.00
2018-02-24T11:21:25.417Z,16.57
2018-02-24T11:23:54.235Z,15.83
2018-02-24T11:26:22.311Z,16.10
2018-02-24T11:28:50.511Z,17.60
2018-02-24T11:31:18.615Z,18.60
2018-02-24T11:33:47.431Z,16.40
2018-02-24T11:36:15.629Z,18.60
2018-02-24T11:38:43.931Z,17.00
2018-02-24T11:41:12.013Z,16.67
2018-02-24T11:43:40.363Z,17.40
2018-02-24T11:46:08.453Z,16.40
2018-02-24T11:48:36.676Z,17.40
2018-02-24T11:51:05.636Z,15.43
2018-02-24T11:53:33.875Z,16.33
2018-02-24T11:56:01.938Z,15.33
2018-02-24T11:58:30.139Z,16.47
2018-02-24T12:00:58.220Z,17.60
2018-02-24T12:03:26.473Z,16.00
2018-02-24T12:05:55.487Z,16.07
2018-02-24T12:08:23.722Z,17.40
2018-02-24T12:10:51.832Z,16.70
2018-02-24T12:13:20.073Z,15.63
2018-02-24T12:15:48.156Z,15.40
2018-02-24T12:18:16.224Z,16.17
2018-02-24T12:20:44.424Z,16.83
2018-02-24T12:23:12.507Z,15.20
2018-02-24T12:25:40.580Z,16.40
2018-02-24T12:28:08.784Z,17.57
2018-02-24T12:30:36.855Z,16.67
2018-02-24T12:33:04.920Z,15.37
2018-02-24T12:35:33.176Z,15.60
2018-02-24T12:38:01.304Z,16.40
2018-02-24T12:40:30.146Z,15.53
2018-02-24T12:42:58.506Z,14.47
2018-02-24T12:45:26.708Z,16.30
2018-02-24T12:47:54.799Z,14.83
2018-02-24T12:50:23.200Z,15.20
2018-02-24T12:52:52.018Z,15.70
2018-02-24T12:55:20.258Z,16.30
2018-02-24T12:57:49.192Z,15.73
2018-02-24T13:00:17.439Z,14.37
2018-02-24T13:02:46.344Z,15.00
2018-02-24T13:05:14.583Z,14.47
2018-02-24T13:07:42.790Z,14.70
2018-02-24T13:10:10.884Z,13.23
2018-02-24T13:12:39.095Z,13.43
2018-02-24T13:15:07.164Z,13.80
2018-02-24T13:17:35.304Z,14.83
2018-02-24T13:20:03.639Z,14.20
2018-02-24T13:22:32.463Z,14.70
2018-02-24T13:25:00.539Z,14.63
2018-02-24T13:27:28.725Z,14.57
2018-02-24T13:29:56.852Z,14.17
2018-02-24T13:32:25.707Z,13.63
2018-02-24T13:34:53.916Z,16.33
2018-02-24T13:37:22.161Z,13.87
2018-02-24T13:39:50.360Z,13.97
2018-02-24T13:42:18.579Z,11.70
2018-02-24T13:44:46.882Z,14.50
2018-02-24T13:47:15.120Z,12.77
2018-02-24T13:49:44.082Z,16.03
2018-02-24T13:52:12.291Z,13.37
2018-02-24T13:54:41.163Z,11.77
2018-02-24T13:57:09.368Z,13.20
2018-02-24T13:59:40.238Z,14.27
2018-02-24T14:02:11.646Z,12.83
2018-02-24T14:04:39.847Z,14.13
2018-02-24T14:07:07.928Z,15.23
2018-02-24T14:09:38.331Z,16.00
2018-02-24T14:12:06.516Z,13.03
2018-02-24T14:14:34.712Z,12.77
2018-02-24T14:17:02.919Z,14.20
2018-02-24T14:19:31.013Z,13.40
2018-02-24T14:22:00.013Z,12.53
2018-02-24T14:24:28.960Z,13.43
2018-02-24T14:26:57.273Z,13.17
2018-02-24T14:29:26.156Z,13.30
2018-02-24T14:31:54.339Z,14.50
2018-02-24T14:34:23.153Z,14.90
2018-02-24T14:36:51.304Z,12.80
2018-02-24T14:39:20.419Z,13.30
2018-02-24T14:41:49.236Z,13.30
2018-02-24T14:44:17.340Z,14.63
2018-02-24T14:46:45.528Z,14.93
2018-02-24T14:49:13.591Z,12.63
2018-02-24T14:51:41.660Z,14.20
2018-02-24T14:54:10.031Z,14.50
2018-02-24T14:56:38.144Z,12.30
2018-02-24T14:59:06.973Z,15.43
2018-02-24T15:01:35.164Z,12.40
2018-02-24T15:04:03.243Z,12.83
2018-02-24T15:06:31.472Z,12.87
2018-02-24T15:09:01.348Z,14.57
2018-02-24T15:11:29.418Z,14.87
2018-02-24T15:13:57.496Z,14.00
2018-02-24T15:16:25.707Z,13.00
2018-02-24T15:18:54.542Z,16.40
2018-02-24T15:21:22.792Z,13.30
2018-02-24T15:23:50.984Z,12.20
2018-02-24T15:26:19.118Z,13.97
2018-02-24T15:28:48.087Z,12.60
2018-02-24T15:31:16.276Z,13.67
2018-02-24T15:33:45.097Z,13.53
2018-02-24T15:36:13.348Z,12.53
2018-02-24T15:38:42.435Z,13.63
2018-02-24T15:41:10.520Z,13.27
2018-02-24T15:43:39.315Z,12.53
2018-02-24T15:46:08.260Z,12.97
2018-02-24T15:48:36.480Z,13.40
2018-02-24T15:51:05.304Z,13.93
2018-02-24T15:53:33.506Z,13.27
2018-02-24T15:56:01.728Z,14.50
2018-02-24T15:58:30.531Z,13.10
2018-02-24T16:00:58.731Z,12.30
2018-02-24T16:03:26.843Z,13.00
2018-02-24T16:05:54.994Z,13.63
2018-02-24T16:08:23.462Z,13.43
2018-02-24T16:10:51.775Z,14.23
2018-02-24T16:13:20.044Z,13.17
2018-02-24T16:15:48.470Z,14.77
2018-02-24T16:18:16.552Z,14.13
2018-02-24T16:20:44.800Z,16.90
2018-02-24T16:23:13.463Z,14.23
2018-02-24T16:25:47.608Z,14.27
2018-02-24T16:28:16.984Z,15.03
2018-02-24T16:30:45.099Z,17.57
2018-02-24T16:33:13.348Z,15.10
2018-02-24T16:35:41.572Z,13.57
2018-02-24T16:38:10.472Z,13.80
2018-02-24T16:40:41.297Z,14.03
2018-02-24T16:43:09.776Z,13.27
2018-02-24T16:45:38.615Z,13.40
2018-02-24T16:48:07.587Z,14.63
2018-02-24T16:50:36.250Z,12.63
2018-02-24T16:53:07.218Z,11.80
2018-02-24T16:55:39.404Z,12.03
2018-02-24T16:58:07.819Z,13.50
2018-02-24T17:00:36.374Z,11.40
2018-02-24T17:03:05.033Z,12.67
2018-02-24T17:14:15.885Z,12.57
2018-02-24T17:16:44.584Z,12.20
2018-02-24T17:19:12.643Z,11.30
2018-02-24T17:21:40.936Z,11.80
2018-02-24T17:24:09.051Z,11.87
2018-02-24T17:26:38.002Z,13.70
2018-02-24T17:29:06.215Z,11.23
2018-02-24T17:31:35.032Z,11.63
2018-02-24T17:34:03.098Z,11.83
2018-02-24T17:36:32.036Z,11.90
2018-02-24T17:51:51.840Z,12.70
2018-02-24T17:54:20.200Z,10.93
2018-02-24T17:56:48.607Z,11.13
2018-02-24T17:59:17.488Z,13.83
2018-02-24T18:01:45.751Z,13.20
2018-02-24T18:04:14.116Z,11.93
2018-02-24T18:06:42.626Z,11.23
2018-02-24T18:09:10.951Z,12.17
2018-02-24T18:11:39.256Z,11.60
2018-02-24T18:14:07.451Z,10.10
2018-02-24T18:16:35.517Z,12.20
2018-02-24T18:19:03.787Z,10.73
2018-02-24T18:21:32.206Z,10.80
2018-02-24T18:24:00.388Z,10.53
2018-02-24T18:26:29.212Z,10.50
2018-02-24T18:28:57.428Z,9.77
2018-02-24T18:31:25.496Z,10.13
2018-02-24T18:33:53.564Z,10.13
2018-02-24T18:36:21.932Z,10.47
2018-02-24T18:38:50.256Z,8.57
2018-02-24T18:41:18.600Z,9.80
2018-02-24T18:43:53.675Z,10.60
2018-02-24T18:46:22.794Z,10.73
2018-02-24T18:48:51.724Z,10.03
2018-02-24T18:51:20.747Z,12.60
2018-02-24T18:53:49.727Z,10.63
2018-02-24T18:56:18.174Z,10.43
2018-02-24T18:58:48.711Z,10.57
2018-02-24T19:01:17.190Z,11.40
2018-02-24T19:03:45.255Z,10.67
2018-02-24T19:06:13.480Z,10.20
2018-02-24T19:08:41.552Z,11.20
2018-02-24T19:11:09.792Z,10.07
2018-02-24T19:13:37.992Z,11.23
2018-02-24T19:16:06.048Z,10.17
2018-02-24T19:18:34.128Z,10.67
2018-02-24T19:21:02.324Z,11.30
2018-02-24T19:23:30.395Z,10.30
2018-02-24T19:25:58.463Z,11.77
2018-02-24T19:28:26.688Z,10.80
2018-02-24T19:30:54.760Z,11.73
2018-02-24T19:33:22.833Z,11.97
2018-02-24T19:35:51.035Z,11.77
2018-02-24T19:38:19.104Z,13.90
2018-02-24T19:40:47.167Z,13.40
2018-02-24T19:43:15.359Z,12.73
2018-02-24T19:45:43.427Z,13.30
2018-02-24T19:48:11.512Z,12.30
2018-02-24T19:50:39.732Z,12.97
2018-02-24T19:53:08.539Z,11.30
2018-02-24T19:55:36.607Z,13.30
2018-02-24T19:58:04.796Z,12.67
2018-02-24T20:00:32.864Z,11.90
2018-02-24T20:03:01.084Z,11.93
2018-02-24T20:05:29.281Z,12.53
2018-02-24T20:07:58.076Z,12.90
2018-02-24T20:10:26.871Z,10.37
2018-02-24T20:12:55.140Z,11.53
2018-02-24T20:15:23.952Z,12.70
2018-02-24T20:17:52.011Z,13.13
2018-02-24T20:20:20.943Z,12.80
2018-02-24T20:22:49.013Z,12.50
2018-02-24T20:25:17.119Z,12.60
2018-02-24T20:27:45.305Z,11.30
2018-02-24T20:30:14.150Z,12.97
2018-02-24T20:32:42.212Z,13.10
2018-02-24T20:35:10.416Z,11.40
2018-02-24T20:37:38.491Z,12.13
2018-02-24T20:40:06.567Z,12.70
2018-02-24T20:42:34.751Z,12.63
2018-02-24T20:45:02.835Z,13.23
2018-02-24T20:47:30.900Z,12.40
2018-02-24T20:49:59.085Z,12.67
2018-02-24T20:52:27.300Z,13.20
2018-02-24T20:54:55.532Z,12.17
2018-02-24T20:57:23.727Z,13.57
2018-02-24T20:59:52.547Z,13.37
2018-02-24T21:02:20.599Z,14.07
2018-02-24T21:04:49.677Z,13.70
2018-02-24T21:07:17.751Z,12.30
2018-02-24T21:09:45.824Z,12.90
2018-02-24T21:12:14.027Z,13.80
2018-02-24T21:14:42.084Z,13.30
2018-02-24T21:17:10.887Z,12.60
2018-02-24T21:19:39.824Z,11.97
2018-02-24T21:22:07.895Z,13.77
2018-02-24T21:24:35.968Z,14.73
2018-02-24T21:27:04.163Z,13.87
2018-02-24T21:29:32.238Z,15.13
2018-02-24T21:32:00.299Z,13.30
2018-02-24T21:34:28.492Z,12.90
2018-02-24T21:36:56.564Z,15.30
2018-02-24T21:39:24.632Z,14.77
2018-02-24T21:41:52.815Z,15.33
2018-02-24T21:44:20.876Z,14.70
2018-02-24T21:46:48.936Z,14.10
2018-02-24T21:49:17.115Z,13.63
2018-02-24T21:51:45.167Z,15.13
2018-02-24T21:54:13.248Z,14.47
2018-02-24T21:56:41.591Z,14.77
2018-02-24T21:59:09.663Z,13.33
2018-02-24T22:01:37.731Z,12.30
2018-02-24T22:04:06.771Z,12.47
2018-02-24T22:06:34.984Z,11.77
2018-02-24T22:09:04.064Z,13.70
2018-02-24T22:11:32.268Z,11.93
2018-02-24T22:14:01.077Z,11.73
2018-02-24T22:16:29.160Z,10.97
2018-02-24T22:18:57.365Z,12.07
2018-02-24T22:21:25.415Z,10.77
2018-02-24T22:23:53.488Z,11.27
2018-02-24T22:26:21.738Z,11.67
2018-02-24T22:28:49.803Z,11.97
2018-02-24T22:31:19.559Z,11.30
2018-02-24T22:33:47.747Z,13.20
2018-02-24T22:36:15.827Z,12.20
2018-02-24T22:38:43.900Z,11.27
2018-02-24T22:41:12.088Z,12.70
2018-02-24T22:43:40.321Z,12.67
2018-02-24T22:46:08.539Z,13.73
2018-02-24T22:48:42.449Z,12.67
2018-02-24T22:51:10.575Z,12.93
2018-02-24T22:53:38.656Z,12.57
2018-02-24T22:56:06.843Z,12.80
2018-02-24T22:58:34.918Z,12.20
2018-02-24T23:01:02.992Z,13.37
2018-02-24T23:03:31.188Z,13.40
2018-02-24T23:05:59.260Z,13.60
2018-02-24T23:08:27.471Z,13.70
2018-02-24T23:10:56.408Z,13.00
2018-02-24T23:13:24.466Z,13.70
2018-02-24T23:15:52.551Z,14.07
2018-02-24T23:18:20.744Z,13.27
2018-02-24T23:20:48.800Z,14.63
2018-02-24T23:23:16.865Z,14.00
2018-02-24T23:25:45.047Z,13.93
2018-02-24T23:28:13.107Z,14.70
2018-02-24T23:30:41.175Z,14.60
2018-02-24T23:33:09.371Z,14.30
2018-02-24T23:35:37.435Z,13.30
2018-02-24T23:38:05.503Z,15.77
2018-02-24T23:40:33.852Z,13.80
2018-02-24T23:43:02.651Z,13.73
2018-02-24T23:45:30.724Z,13.60
2018-02-24T23:47:59.083Z,14.67
2018-02-24T23:50:28.068Z,13.63
2018-02-24T23:52:56.300Z,13.33
2018-02-24T23:55:24.664Z,13.97
2018-02-24T23:57:52.731Z,12.57
